• Join FlightAware (Why Join?)
  • Login
  • US Flag 
07:56PM EDT


 

Airport Tracker/Info


-or-


 

Live Flight TrackerFlight Track Log ✈ JBU498 ✈ 27-Feb-2012 ✈ KSEA - KBOS

Flight Track Log - Related Links

Times and Time Zones

All times are in EST time to prevent confusion due to time zone crossing. See the JBU498 flight status page for this flight to view local times or setup timezone preferences in your user account.

Time Position Orientation Groundspeed Altitude Reporting Facility
EST Latitude Longitude Course Direction KTS MPH feet Rate Location/Type
03:23AM 47.4333 -122.1469 254° West  Level FlightAware Approximate
03:24AM 47.4017 -122.3092 170° South 161 185 2,500  Level Seattle Center
03:25AM 47.3372 -122.2922 89° East 246 283 4,300 2,280 Climbing Seattle Center
03:27AM 47.3392 -122.1700 72° East 272 313 7,800 2,580 Climbing Seattle Center
03:28AM 47.3631 -122.0583 74° East 289 333 10,300 1,800 Climbing Seattle Center
03:29AM 47.3883 -121.9247 84° East 360 414 11,400 1,680 Climbing Seattle Center
03:30AM 47.3989 -121.7761 84° East 371 427 13,700 2,220 Climbing Seattle Center
03:31AM 47.4089 -121.6225 85° East 380 437 15,900 1,800 Climbing Seattle Center
03:32AM 47.4192 -121.4606 86° East 397 457 17,300 1,380 Climbing Seattle Center
03:33AM 47.4275 -121.2853 85° East 431 496 18,700 1,440 Climbing Seattle Center
03:34AM 47.4389 -121.1053 85° East 444 511 20,200 2,100 Climbing Seattle Center
03:35AM 47.4503 -120.9244 85° East 447 514 22,900 1,980 Climbing Seattle Center
03:36AM 47.4603 -120.7358 85° East 431 496 24,200 1,440 Climbing Seattle Center
03:37AM 47.4697 -120.5583 85° East 433 498 25,800 1,260 Climbing Seattle Center
03:38AM 47.4800 -120.3806 86° East 434 499 26,800 960 Climbing Seattle Center
03:39AM 47.4886 -120.1972 85° East 445 512 27,800 1,200 Climbing Seattle Center
03:40AM 47.4989 -120.0117 86° East 452 520 29,200 1,260 Climbing Seattle Center
03:41AM 47.5075 -119.8258 86° East 453 521 30,400 1,200 Climbing Seattle Center
03:42AM 47.5158 -119.6408 86° East 454 522 31,700 1,140 Climbing Seattle Center
03:43AM 47.5247 -119.4586 87° East 448 516 32,700 1,080 Climbing Seattle Center
03:44AM 47.5319 -119.2778 86° East 444 511 33,900 840 Climbing Seattle Center
03:45AM 47.5394 -119.0975 86° East 441 507 34,400 540 Climbing Seattle Center
03:46AM 47.5469 -118.9161 87° East 443 510 35,000 300 Climbing Seattle Center
03:47AM 47.5536 -118.7369 86° East 440 506 35,000  Level Seattle Center
03:48AM 47.5622 -118.5611 86° East 437 503 35,000  Level Seattle Center
03:49AM 47.5694 -118.3839 86° East 434 499 35,000  Level Seattle Center
03:50AM 47.5772 -118.2014 87° East 436 502 35,000  Level Seattle Center
03:51AM 47.5831 -118.0189 87° East 438 504 35,000  Level Seattle Center
03:52AM 47.5889 -117.8364 87° East 441 507 35,000  Level Seattle Center
03:53AM 47.5953 -117.6556 89° East 441 507 35,000  Level Seattle Center
03:54AM 47.5975 -117.4622 88° East 449 517 35,000  Level Seattle Center
03:55AM 47.6025 -117.2792 88° East 446 513 35,000  Level Seattle Center
03:56AM 47.6056 -117.0989 87° East 443 510 35,000  Level Seattle Center
03:57AM 47.6125 -116.9042 88° East 434 499 35,000  Level Seattle Center
03:58AM 47.6161 -116.7206 89° East 443 510 35,000 -60 Level Seattle Center
03:59AM 47.6189 -116.5417 88° East 439 505 34,900  Descending Seattle Center
04:00AM 47.6222 -116.3611 88° East 439 505 35,000  Climbing Seattle Center
04:01AM 47.6253 -116.1814 88° East 438 504 35,000  Level Seattle Center
04:02AM 47.6286 -116.0003 89° East 440 506 35,000  Level Seattle Center
04:03AM 47.6306 -115.8197 88° East 439 505 35,000  Level Seattle Center
04:04AM 47.6339 -115.6594 89° East 438 504 35,000  Level Seattle Center
04:05AM 47.6358 -115.4892 89° East 425 489 35,000  Level Seattle Center
04:06AM 47.6375 -115.2847 89° East 418 481 35,000  Level Seattle Center
04:07AM 47.6394 -115.1158 89° East 414 476 35,000  Level Seattle Center
04:08AM 47.6411 -114.9469 89° East 413 475 35,000  Level Seattle Center
04:09AM 47.6428 -114.7800 90° East 410 472 35,000  Level Seattle Center
04:10AM 47.6428 -114.6131 90° East 410 472 35,000 -60 Level Seattle Center
04:11AM 47.6436 -114.4450 90° East 411 473 34,900  Descending Seattle Center
04:12AM 47.6433 -114.2767 90° East 412 474 35,000  Climbing Seattle Center
04:13AM 47.6428 -114.1036 90° East 420 483 35,000  Level Seattle Center
04:14AM 47.6419 -113.9294 90° East 424 488 35,000  Level Seattle Center
04:15AM 47.6417 -113.7525 90° East 429 494 35,000  Level Seattle Center
04:16AM 47.6408 -113.5739 91° East 434 499 35,000 -60 Level Seattle Center
04:17AM 47.6381 -113.3600 90° East 435 501 34,900 -60 Descending Salt Lake Center
04:18AM 47.6369 -113.1814 91° East 436 502 34,900  Level Salt Lake Center
04:19AM 47.6356 -113.0006 91° East 439 505 34,900  Level Salt Lake Center
04:20AM 47.6319 -112.7953 91° East 447 514 35,000  Climbing Salt Lake Center
04:21AM 47.6297 -112.6089 91° East 451 519 35,000  Level Salt Lake Center
04:22AM 47.6264 -112.4206 91° East 455 524 35,000 -60 Level Salt Lake Center
04:23AM 47.6233 -112.2350 91° East 455 524 34,900  Descending Salt Lake Center
04:24AM 47.6211 -112.0478 92° East 455 524 35,000  Climbing Salt Lake Center
04:25AM 47.6175 -111.8617 92° East 454 522 34,900 -60 Descending Salt Lake Center
04:26AM 47.6128 -111.6742 92° East 456 525 34,900  Level Salt Lake Center
04:27AM 47.6081 -111.4842 92° East 460 529 35,000  Climbing Salt Lake Center
04:28AM 47.6031 -111.2786 92° East 461 531 35,000  Level Salt Lake Center
04:29AM 47.6000 -111.1239 93° East 461 531 35,000  Level Salt Lake Center
04:30AM 47.5933 -110.9344 92° East 463 533 35,000  Level Salt Lake Center
04:31AM 47.5886 -110.7431 92° East 465 535 35,000  Level Salt Lake Center
04:32AM 47.5822 -110.5139 93° East 466 536 35,000 -60 Level Salt Lake Center
04:33AM 47.5756 -110.3247 94° East 464 534 34,900 -60 Descending Salt Lake Center
04:34AM 47.5661 -110.1356 93° East 462 532 34,900  Level Salt Lake Center
04:35AM 47.5586 -109.9439 92° East 466 536 35,000  Climbing Salt Lake Center
04:36AM 47.5531 -109.7522 92° East 468 539 35,000  Level Salt Lake Center
04:37AM 47.5472 -109.5592 94° East 470 541 35,000 -60 Level Salt Lake Center
04:38AM 47.5383 -109.3672 94° East 470 541 34,900 -60 Descending Salt Lake Center
04:39AM 47.5297 -109.1744 94° East 471 542 34,900  Level Salt Lake Center
04:40AM 47.5206 -108.9836 94° East 469 540 35,000  Climbing Salt Lake Center
04:41AM 47.5119 -108.7931 94° East 467 537 35,000  Level Salt Lake Center
04:42AM 47.5031 -108.6025 94° East 467 537 35,000 -60 Level Salt Lake Center
04:43AM 47.4931 -108.4106 94° East 469 540 34,900  Descending Salt Lake Center
04:44AM 47.4828 -108.2161 95° East 473 544 35,000  Climbing Salt Lake Center
04:45AM 47.4717 -108.0172 95° East 475 547 35,000  Level Salt Lake Center
04:46AM 47.4614 -107.8306 95° East 476 548 35,000  Level Salt Lake Center
04:47AM 47.4503 -107.6433 95° East 477 549 35,000  Level Salt Lake Center
04:48AM 47.4394 -107.4558 95° East 478 550 35,000  Level Salt Lake Center
04:49AM 47.4264 -107.2367 95° East 479 551 35,000  Level Salt Lake Center
04:50AM 47.4147 -107.0503 95° East 477 549 35,000  Level Salt Lake Center
04:51AM 47.4028 -106.8631 96° East 478 550 35,000  Level Salt Lake Center
04:52AM 47.3903 -106.6758 96° East 479 551 35,000  Level Salt Lake Center
04:53AM 47.3750 -106.4542 96° East 483 556 35,000  Level Salt Lake Center
04:54AM 47.3617 -106.2664 96° East 483 556 35,000  Level Salt Lake Center
04:55AM 47.3494 -106.0897 96° East 484 557 35,000  Level Salt Lake Center
04:56AM 47.3344 -105.8928 97° East 485 558 35,000  Level Salt Lake Center
04:57AM 47.3189 -105.6944 96° East 487 560 35,000  Level Salt Lake Center
04:58AM 47.3053 -105.4992 97° East 485 558 35,000  Level Salt Lake Center
04:59AM 47.2892 -105.3014 97° East 486 559 35,000  Level Salt Lake Center
05:00AM 47.2736 -105.1042 97° East 488 562 35,000  Level Salt Lake Center
05:01AM 47.2578 -104.9075 97° East 487 560 35,000  Level Salt Lake Center
05:02AM 47.2414 -104.7086 97° East 490 564 35,000  Level Salt Lake Center
05:03AM 47.2242 -104.5106 97° East 491 565 35,000  Level Salt Lake Center
05:04AM 47.2036 -104.2714 98° East 493 567 35,000  Level Salt Lake Center
05:05AM 47.1847 -104.0706 98° East 496 571 35,000  Level Salt Lake Center
05:06AM 47.1661 -103.8717 98° East 498 573 35,000  Level Salt Lake Center
05:07AM 47.1467 -103.6714 98° East 499 574 35,000  Level Salt Lake Center
05:08AM 47.1278 -103.4692 98° East 501 577 35,000  Level Salt Lake Center
05:09AM 47.1078 -103.2694 98° East 501 577 35,000  Level Salt Lake Center
05:10AM 47.0883 -103.0681 91° East 502 578 35,000  Level Salt Lake Center
05:11AM 47.0867 -102.8608 91° East 504 580 35,000  Level Salt Lake Center
05:12AM 47.0842 -102.6572 91° East 503 579 35,000  Level Salt Lake Center
05:13AM 47.0819 -102.4483 92° East 509 586 35,000  Level Salt Lake Center
05:14AM 47.0786 -102.3253 91° East 505 581 35,000  Level Minneapolis Center
05:15AM 47.0756 -102.1197 92° East 510 587 35,000  Level Minneapolis Center
05:16AM 47.0703 -101.9142 93° East 510 587 35,000  Level Minneapolis Center
05:17AM 47.0619 -101.7111 90° East 502 578 35,000  Level Minneapolis Center
05:18AM 47.0628 -101.4972 93° East 502 578 35,000  Level Minneapolis Center
05:19AM 47.0558 -101.2944 93° East 502 578 35,000  Level Minneapolis Center
05:20AM 47.0469 -101.0856 89° East 507 583 35,000  Level Minneapolis Center
05:21AM 47.0481 -100.8811 94° East 507 583 35,000  Level Minneapolis Center
05:22AM 47.0381 -100.6781 91° East 500 575 35,000  Level Minneapolis Center
05:23AM 47.0364 -100.4703 94° East 505 581 35,000  Level Minneapolis Center
05:24AM 47.0256 -100.2675 93° East 505 581 35,000  Level Minneapolis Center
05:25AM 47.0186 -100.0653 93° East 505 581 35,000  Level Minneapolis Center
05:26AM 47.0117 -99.8572 95° East 505 581 35,000  Level Minneapolis Center
05:27AM 47.0000 -99.6544 93° East 505 581 35,000  Level Minneapolis Center
05:28AM 46.9925 -99.4433 95° East 505 581 35,000  Level Minneapolis Center
05:29AM 46.9803 -99.2347 94° East 505 581 35,000  Level Minneapolis Center
05:30AM 46.9697 -99.0264 95° East 510 587 35,000  Level Minneapolis Center
05:31AM 46.9572 -98.8089 95° East 516 594 35,000  Level Minneapolis Center
05:32AM 46.9458 -98.6008 94° East 521 600 35,000  Level Minneapolis Center
05:33AM 46.9364 -98.3900 95° East 521 600 35,000  Level Minneapolis Center
05:34AM 46.9228 -98.1725 95° East 526 605 35,000  Level Minneapolis Center
05:35AM 46.9103 -97.9617 95° East 526 605 35,000  Level Minneapolis Center
05:36AM 46.8978 -97.7478 95° East 526 605 35,000  Level Minneapolis Center
05:37AM 46.8847 -97.5339 95° East 526 605 35,000  Level Minneapolis Center
05:38AM 46.8711 -97.3233 94° East 526 605 35,000  Level Minneapolis Center
05:39AM 46.8597 -97.1067 96° East 526 605 35,000  Level Minneapolis Center
05:40AM 46.8419 -96.8658 95° East 531 611 35,000  Level Minneapolis Center
05:41AM 46.8275 -96.6494 96° East 536 617 35,000  Level Minneapolis Center
05:42AM 46.8106 -96.4297 95° East 541 623 35,000  Level Minneapolis Center
05:43AM 46.7972 -96.2108 95° East 541 623 35,000  Level Minneapolis Center
05:44AM 46.7836 -95.9917 98° East 541 623 35,000 -60 Level Minneapolis Center
05:45AM 46.7633 -95.7725 97° East 541 623 34,900  Descending Minneapolis Center
05:46AM 46.7444 -95.5536 96° East 541 623 35,000  Climbing Minneapolis Center
05:47AM 46.7297 -95.3350 96° East 541 623 35,000  Level Minneapolis Center
05:48AM 46.7122 -95.1133 97° East 541 623 35,000  Level Minneapolis Center
05:49AM 46.6925 -94.8947 97° East 541 623 35,000  Level Minneapolis Center
05:50AM 46.6722 -94.6703 97° East 546 628 35,000  Level Minneapolis Center
05:51AM 46.6533 -94.4522 98° East 546 628 35,000  Level Minneapolis Center
05:52AM 46.6322 -94.2281 97° East 546 628 35,000  Level Minneapolis Center
05:53AM 46.6128 -94.0042 98° East 552 635 35,000  Level Minneapolis Center
05:54AM 46.5908 -93.7833 98° East 552 635 35,000  Level Minneapolis Center
05:55AM 46.5703 -93.5628 98° East 552 635 35,000  Level Minneapolis Center
05:56AM 46.5475 -93.3364 98° East 557 641 35,000  Level Minneapolis Center
05:57AM 46.5242 -93.1103 99° East 562 647 35,000  Level Minneapolis Center
05:58AM 46.5003 -92.8872 98° East 562 647 35,000  Level Minneapolis Center
05:59AM 46.4783 -92.6583 99° East 562 647 35,000  Level Minneapolis Center
06:00AM 46.4536 -92.4356 99° East 562 647 35,000  Level Minneapolis Center
06:01AM 46.4283 -92.2103 99° East 562 647 35,000  Level Minneapolis Center
06:02AM 46.4031 -91.9881 99° East 562 647 35,000  Level Minneapolis Center
06:03AM 46.3792 -91.7600 100° East 562 647 35,000  Level Minneapolis Center
06:04AM 46.3506 -91.5353 98° East 562 647 35,000  Level Minneapolis Center
06:05AM 46.3278 -91.3106 100° East 562 647 35,000  Level Minneapolis Center
06:06AM 46.3006 -91.0892 100° East 557 641 35,000  Level Minneapolis Center
06:07AM 46.2728 -90.8622 99° East 563 648 35,000  Level Minneapolis Center
06:08AM 46.2467 -90.6383 100° East 563 648 35,000  Level Minneapolis Center
06:09AM 46.2181 -90.4144 100° East 563 648 35,000  Level Minneapolis Center
06:10AM 46.1889 -90.1881 100° East 563 648 35,000  Level Minneapolis Center
06:11AM 46.1614 -89.9650 101° East 563 648 35,000  Level Minneapolis Center
06:12AM 46.1314 -89.7389 99° East 563 648 35,000  Level Minneapolis Center
06:13AM 46.1072 -89.5158 103° East 568 654 35,000  Level Minneapolis Center
06:14AM 46.0750 -89.3147 101° East 568 654 35,000  Level Minneapolis Center
06:15AM 46.0408 -89.0658 102° East 574 661 35,000  Level Minneapolis Center
06:16AM 46.0122 -88.8678 101° East 579 666 35,000  Level Minneapolis Center
06:17AM 45.9800 -88.6400 102° East 579 666 35,000  Level Minneapolis Center
06:18AM 45.9472 -88.4158 101° East 579 666 35,000  Level Minneapolis Center
06:19AM 45.9164 -88.1917 102° East 579 666 35,000  Level Minneapolis Center
06:20AM 45.8794 -87.9442 101° East 579 666 35,000  Level Minneapolis Center
06:21AM 45.8478 -87.7206 103° East 579 666 35,000  Level Minneapolis Center
06:22AM 45.8114 -87.5008 103° East 579 666 35,000  Level Minneapolis Center
06:23AM 45.7764 -87.2778 102° East 579 666 35,000  Level Minneapolis Center
06:24AM 45.7467 -87.0786 102° East 579 666 35,000  Level Minneapolis Center
06:25AM 45.7097 -86.8328 104° East 579 666 35,000  Level Minneapolis Center
06:26AM 45.6714 -86.6081 103° East 579 666 35,000  Level Minneapolis Center
06:27AM 45.6347 -86.3864 103° East 579 666 35,000  Level Minneapolis Center
06:28AM 45.5978 -86.1653 103° East 579 666 35,000  Level Minneapolis Center
06:29AM 45.5622 -85.9411 104° East 574 661 35,000  Level Minneapolis Center
06:30AM 45.5247 -85.7233 104° East 579 666 35,000  Level Minneapolis Center
06:31AM 45.4867 -85.5058 105° East 579 666 35,000  Level Minneapolis Center
06:32AM 45.4456 -85.2833 104° East 579 666 35,000  Level Minneapolis Center
06:33AM 45.4067 -85.0636 104° East 579 666 35,000  Level Minneapolis Center
06:34AM 45.3672 -84.8472 105° East 579 666 35,000  Level Minneapolis Center
06:35AM 45.3275 -84.6311 105° East 579 666 35,000  Level Minneapolis Center
06:36AM 45.2850 -84.4100 104° East 579 666 35,000  Level Minneapolis Center
06:37AM 45.2461 -84.1883 106° East 579 666 35,000  Level Minneapolis Center
06:38AM 45.2028 -83.9708 105° East 579 666 35,000  Level Minneapolis Center
06:39AM 45.1611 -83.7503 105° East 579 666 35,000  Level Minneapolis Center
06:40AM 45.1189 -83.5303 105° East 579 666 35,000  Level Minneapolis Center
06:41AM 45.0761 -83.3103 106° East 579 666 35,000  Level Minneapolis Center
06:42AM 45.0375 -83.1167 106° East 579 666 35,000  Level Minneapolis Center
06:43AM 44.9922 -82.8981 106° East 579 666 35,000  Level Minneapolis Center
06:44AM 44.9483 -82.6794 107° East 579 666 35,000  Level Minneapolis Center
06:45AM 44.9019 -82.4614 107° East 579 666 35,000  Level Minneapolis Center
06:46AM 44.8333 -82.1500 102° East 580 667 35,000  Level Toronto Center
06:47AM 44.8000 -81.9333 108° East 580 667 35,000  Level Toronto Center
06:48AM 44.7500 -81.7167 109° East 580 667 35,000  Level Toronto Center
06:49AM 44.7000 -81.5167 106° East 580 667 35,000  Level Toronto Center
06:50AM 44.6500 -81.2667 111° Southeast 580 667 35,000  Level Toronto Center
06:51AM 44.6000 -81.0833 107° East 570 656 35,000  Level Toronto Center
06:52AM 44.5500 -80.8500 102° East 570 656 35,000  Level Toronto Center
06:53AM 44.5167 -80.6333 109° East 570 656 35,000  Level Toronto Center
06:54AM 44.4667 -80.4333 108° East 580 667 35,000  Level Toronto Center
06:55AM 44.4167 -80.2167 108° East 580 667 35,000  Level Toronto Center
06:56AM 44.3667 -80.0000 107° East 580 667 35,000  Level Toronto Center
06:57AM 44.3167 -79.7667 111° Southeast 580 667 35,000  Level Toronto Center
06:58AM 44.2667 -79.5833 103° East 570 656 35,000  Level Toronto Center
06:59AM 44.2333 -79.3833 112° Southeast 570 656 35,000  Level Toronto Center
07:00AM 44.1667 -79.1500 104° East 570 656 35,000  Level Toronto Center
07:01AM 44.1333 -78.9667 107° East 570 656 35,000  Level Toronto Center
07:02AM 44.0833 -78.7333 108° East 570 656 35,000  Level Toronto Center
07:03AM 44.0333 -78.5167 117° Southeast 570 656 35,000  Level Toronto Center
07:04AM 43.9667 -78.3333 106° East 570 656 35,000  Level Toronto Center
07:05AM 43.9167 -78.1000 111° Southeast 570 656 35,000  Level Toronto Center
07:06AM 43.8667 -77.9167 108° East 570 656 35,000  Level Toronto Center
07:07AM 43.8167 -77.7000 108° East 570 656 35,000  Level Toronto Center
07:08AM 43.7667 -77.4833 117° Southeast 570 656 35,000  Level Toronto Center
07:09AM 43.7000 -77.3000 106° East 570 656 35,000  Level Toronto Center
07:10AM 43.6500 -77.0667 112° Southeast 570 656 35,000  Level Toronto Center
07:11AM 43.6000 -76.9000 102° East 560 644 35,000  Level Toronto Center
07:12AM 43.5667 -76.6833 115° Southeast 560 644 35,000  Level Toronto Center
07:13AM 43.5000 -76.4833 109° East 560 644 35,000  Level Toronto Center
07:14AM 43.4500 -76.2833 115° Southeast 560 644 35,000  Level Toronto Center
07:15AM 43.3833 -76.0833 108° East 560 644 35,000  Level Toronto Center
07:16AM 43.3333 -75.8667 112° Southeast 550 633 35,000  Level Toronto Center
07:17AM 43.2833 -75.7000 113° Southeast 550 633 35,000  Level Toronto Center
07:18AM 43.2167 -75.4833 105° East 550 633 35,000  Level Toronto Center
07:19AM 43.1833 -75.3167 114° Southeast 550 633 35,100  Climbing Toronto Center
07:20AM 43.1167 -75.1167 109° East 540 621 35,000 -120 Descending Toronto Center
07:21AM 43.0667 -74.9167 113° Southeast 540 621 34,900  Descending Toronto Center
07:22AM 43.0000 -74.7000 105° East 540 621 35,000  Climbing Toronto Center
07:23AM 42.9667 -74.5333 114° Southeast 540 621 35,000  Level Toronto Center
07:24AM 42.9000 -74.3333 111° Southeast 540 621 35,000  Level Toronto Center
07:25AM 42.8364 -74.1078 113° Southeast 539 620 35,000  Level Boston Center
07:26AM 42.7844 -73.9394 109° East 539 620 35,000  Level Boston Center
07:27AM 42.7367 -73.7461 97° East 539 620 35,000  Level Boston Center
07:28AM 42.7181 -73.5450 98° East 528 608 35,000 -1,140 Level Boston Center
07:29AM 42.6950 -73.3214 100° East 528 608 32,800 -3,000 Descending Boston Center
07:30AM 42.6694 -73.1178 97° East 539 620 29,100 -3,060 Descending Boston Center
07:31AM 42.6517 -72.9086 99° East 554 638 26,700 -2,160 Descending Boston Center
07:32AM 42.6272 -72.7081 98° East 554 638 24,800 -2,220 Descending Boston Center
07:33AM 42.6089 -72.5247 101° East 519 597 22,300 -2,460 Descending Boston Center
07:34AM 42.5817 -72.3386 99° East 506 582 19,900 -2,220 Descending Boston Center
07:35AM 42.5606 -72.1667 100° East 476 548 17,900 -1,800 Descending Boston Center
07:36AM 42.5414 -72.0147 96° East 458 527 16,300 -2,160 Descending Boston Center
07:37AM 42.5281 -71.8400 97° East 434 499 13,600 -2,400 Descending Boston Center
07:38AM 42.5147 -71.6992 98° East 422 486 11,600 -1,500 Descending Boston Center
07:39AM 42.4989 -71.5389 98° East 398 458 10,600 -960 Descending Boston Center
07:40AM 42.4875 -71.4236 94° East 360 414 9,700 -960 Descending Boston Center
07:41AM 42.4833 -71.3333 101° East 325 374 9,100 -840 Descending Boston TRACON
07:42AM 42.4667 -71.2167 90° East 289 333 8,400 -720 Descending Boston TRACON
07:43AM 42.4667 -71.1167 103° East 265 305 7,700 -720 Descending Boston TRACON
07:44AM 42.4500 -71.0167 90° East 251 289 7,000 -840 Descending Boston TRACON
07:45AM 42.4500 -70.9333 77° East 240 276 6,100 -1,140 Descending Boston TRACON
07:46AM 42.4667 -70.8333 77° East 235 270 4,800 -1,320 Descending Boston TRACON